Terminal Aerodrome Forecast
Issued by NWS

Home | Current Version | Previous Version | Text Only | Print | Product List | Glossary On
Versions: 1 2 3 4 5 6 7 8 9 10 11 12 13 14
431
FTAK31 PAJN 281720
TAFAWG
TAF
PAWG 281720Z 2818/2918 34003KT P6SM FEW005 BKN040
     FM282200 32008KT P6SM SCT040
      AMD LTD TO CLD VIS AND WIND 2906/2915=

USA.gov is the U.S. government's official web portal to all federal, state and local government web resources and services.